Time;durP1;ratioP1;P1;durP2;ratioP2;P2;SDS_P1;SDS_P2;PMS_P1;PMS_P2;Temp;Humidity;BMP_temperature;BMP_pressure;BME280_temperature;BME280_humidity;BME280_pressure;Samples;Min_cycle;Max_cycle;Signal;HPM_P1;HPM_P2
2023/09/10 00:00:28;;;;;;;9.07;4.18;;;;;;;23.63;43.27;99864.84;5071865;28;20020;-81
2023/09/10 00:02:53;;;;;;;9.97;4.30;;;;;;;23.61;43.07;99855.97;5071736;28;20468;-81
2023/09/10 00:05:19;;;;;;;10.50;4.47;;;;;;;23.58;43.40;99853.50;5071811;28;20089;-81
2023/09/10 00:07:44;;;;;;;7.10;4.18;;;;;;;23.59;43.42;99846.31;5071635;28;20021;-81
2023/09/10 00:10:10;;;;;;;7.60;4.97;;;;;;;23.57;43.56;99841.03;5071703;28;20424;-80
2023/09/10 00:12:35;;;;;;;7.13;4.27;;;;;;;23.49;43.66;99841.50;5071540;28;20484;-81
2023/09/10 00:15:00;;;;;;;8.20;4.30;;;;;;;23.46;44.17;99830.13;5071785;28;20508;-81
2023/09/10 00:17:26;;;;;;;8.77;4.32;;;;;;;23.36;44.33;99827.16;5071554;28;20033;-81
2023/09/10 00:19:51;;;;;;;6.90;4.17;;;;;;;23.39;44.18;99824.28;5071988;28;20035;-81
2023/09/10 00:22:16;;;;;;;8.37;4.13;;;;;;;23.40;44.11;99834.06;5068509;28;20023;-80
2023/09/10 00:24:42;;;;;;;6.87;4.53;;;;;;;23.39;44.57;99840.41;5051476;28;20073;-79
2023/09/10 00:27:07;;;;;;;7.40;3.83;;;;;;;23.39;44.41;99844.91;5051545;28;20100;-80
2023/09/10 00:29:32;;;;;;;11.57;4.63;;;;;;;23.36;44.74;99846.81;5051102;28;20033;-80
2023/09/10 00:31:58;;;;;;;6.67;4.10;;;;;;;23.39;44.54;99850.28;5051054;28;20029;-81
2023/09/10 00:34:23;;;;;;;9.93;4.60;;;;;;;23.33;44.82;99854.25;5051039;28;20267;-81
2023/09/10 00:36:49;;;;;;;8.47;4.60;;;;;;;23.31;44.62;99858.84;5051054;28;20037;-81
2023/09/10 00:39:14;;;;;;;9.33;4.57;;;;;;;23.32;44.92;99861.41;5051154;28;20028;-81
2023/09/10 00:41:40;;;;;;;7.77;4.20;;;;;;;23.22;46.39;99854.88;5059379;28;20032;-81
2023/09/10 00:44:05;;;;;;;6.68;4.43;;;;;;;23.19;46.48;99855.94;5069968;28;20086;-80
2023/09/10 00:46:31;;;;;;;7.03;4.23;;;;;;;23.22;46.11;99847.69;5070708;28;20111;-81
2023/09/10 00:48:58;;;;;;;6.70;4.35;;;;;;;23.16;46.43;99834.66;5070743;28;20035;-80
2023/09/10 00:51:24;;;;;;;8.10;4.37;;;;;;;23.16;46.61;99834.66;5052798;28;20380;-80
2023/09/10 00:53:49;;;;;;;7.13;4.55;;;;;;;23.15;47.07;99832.91;5070790;28;20574;-80
2023/09/10 00:56:15;;;;;;;6.50;4.10;;;;;;;23.12;47.34;99833.13;5061901;28;20029;-81
2023/09/10 00:58:41;;;;;;;9.93;5.00;;;;;;;23.07;47.97;99824.50;5050794;28;20028;-81
2023/09/10 01:01:08;;;;;;;7.32;4.50;;;;;;;23.08;47.69;99829.75;5050916;28;20114;-80
2023/09/10 01:03:34;;;;;;;8.50;4.40;;;;;;;23.04;48.04;99832.75;5050775;28;20029;-81
2023/09/10 01:06:00;;;;;;;9.25;4.60;;;;;;;23.02;47.89;99824.78;5032836;28;20112;-81
2023/09/10 01:08:26;;;;;;;7.72;4.20;;;;;;;23.03;48.23;99825.63;5050738;28;20104;-81
2023/09/10 01:11:31;;;;;;;9.53;4.53;;;;;;;23.00;48.50;99829.38;5050737;28;20033;-81
2023/09/10 01:14:11;;;;;;;7.05;4.60;;;;;;;22.98;49.24;99823.25;5049660;28;20045;-81
2023/09/10 01:17:00;;;;;;;7.00;4.40;;;;;;;22.98;48.75;99825.06;5050407;28;20208;-80
2023/09/10 01:19:47;;;;;;;7.78;4.63;;;;;;;22.95;49.20;99828.81;5050290;28;20393;-79
2023/09/10 01:22:36;;;;;;;8.35;4.47;;;;;;;22.98;48.49;99827.75;5052831;28;20029;-82
2023/09/10 01:25:02;;;;;;;10.83;4.47;;;;;;;22.96;48.48;99821.63;5070457;28;20028;-82
2023/09/10 01:27:28;;;;;;;7.57;4.68;;;;;;;22.92;48.75;99816.44;5051076;28;20021;-81
2023/09/10 01:29:53;;;;;;;6.85;4.38;;;;;;;22.89;49.05;99811.28;5035740;28;20047;-80
2023/09/10 01:32:51;;;;;;;8.90;4.70;;;;;;;22.86;48.94;99806.09;5070200;28;20071;-81
2023/09/10 01:35:24;;;;;;;7.03;4.10;;;;;;;22.84;49.27;99808.03;5065166;28;20463;-81
2023/09/10 01:38:05;;;;;;;9.53;4.87;;;;;;;22.84;49.18;99818.75;5070003;28;20456;-80
2023/09/10 01:40:39;;;;;;;9.15;4.63;;;;;;;22.85;48.83;99830.34;5071017;28;20020;-80
2023/09/10 01:43:06;;;;;;;7.57;4.45;;;;;;;22.82;48.49;99831.41;5089825;28;20039;-81
2023/09/10 01:45:33;;;;;;;9.45;4.90;;;;;;;22.83;48.77;99846.56;5089074;28;20448;-81
2023/09/10 01:48:01;;;;;;;7.32;4.60;;;;;;;22.81;48.79;99853.84;5090089;28;20024;-80
2023/09/10 01:50:29;;;;;;;7.73;4.37;;;;;;;22.78;48.71;99859.38;5089972;28;20024;-80
2023/09/10 01:52:54;;;;;;;7.80;4.20;;;;;;;22.79;48.51;99853.94;5090039;28;20027;-81
2023/09/10 01:55:19;;;;;;;7.57;4.77;;;;;;;22.80;48.51;99852.13;5088281;28;20428;-80
2023/09/10 01:57:45;;;;;;;6.70;4.47;;;;;;;22.78;48.50;99862.06;5069643;28;20067;-81
2023/09/10 02:00:11;;;;;;;9.43;4.60;;;;;;;22.76;48.25;99858.63;5069849;28;20036;-81
2023/09/10 02:02:36;;;;;;;7.67;4.70;;;;;;;22.77;48.17;99861.22;5069619;28;20029;-81
2023/09/10 02:05:02;;;;;;;7.30;4.27;;;;;;;22.79;48.05;99853.09;5070051;28;20090;-80
2023/09/10 02:07:27;;;;;;;7.40;4.47;;;;;;;22.78;47.99;99851.34;5069413;28;20059;-80
2023/09/10 02:09:53;;;;;;;8.57;4.53;;;;;;;22.79;47.82;99847.72;5069838;28;20056;-81
2023/09/10 02:12:18;;;;;;;7.50;4.22;;;;;;;22.74;48.14;99849.81;5069279;28;20052;-81
2023/09/10 02:14:48;;;;;;;8.17;4.57;;;;;;;22.73;48.08;99842.72;5069195;28;20044;-81
2023/09/10 02:17:14;;;;;;;6.93;4.20;;;;;;;22.71;47.98;99850.00;5069524;28;20291;-80
2023/09/10 02:19:39;;;;;;;8.33;4.93;;;;;;;22.67;48.22;99849.34;5069446;28;20295;-80
2023/09/10 02:22:04;;;;;;;7.73;4.50;;;;;;;22.69;48.03;99857.28;5069526;28;20111;-79
2023/09/10 02:24:30;;;;;;;8.73;4.65;;;;;;;22.67;48.07;99857.41;5069643;28;20632;-79
2023/09/10 02:26:55;;;;;;;8.00;4.87;;;;;;;22.65;48.24;99862.84;5069034;28;20067;-80
2023/09/10 02:29:20;;;;;;;8.93;4.93;;;;;;;22.65;48.67;99873.56;5069526;28;20383;-81
2023/09/10 02:31:46;;;;;;;8.50;5.20;;;;;;;22.60;48.49;99874.81;5049871;28;20057;-81
2023/09/10 02:34:11;;;;;;;9.93;5.00;;;;;;;22.59;48.60;99883.81;5049200;28;20114;-81
2023/09/10 02:36:36;;;;;;;7.63;5.03;;;;;;;22.60;48.61;99896.28;5050133;28;20068;-80
2023/09/10 02:39:03;;;;;;;8.83;4.50;;;;;;;22.59;48.48;99906.16;5049304;28;20025;-80
2023/09/10 02:41:28;;;;;;;8.27;4.60;;;;;;;22.59;48.51;99911.53;5055769;28;20385;-80
2023/09/10 02:43:54;;;;;;;7.87;4.80;;;;;;;22.59;48.62;99916.91;5069512;28;20043;-80
2023/09/10 02:46:19;;;;;;;9.80;4.90;;;;;;;22.57;48.70;99908.06;5069180;28;20388;-80
2023/09/10 02:48:44;;;;;;;7.00;4.57;;;;;;;22.54;49.08;99910.91;5068948;28;20089;-80
2023/09/10 02:51:10;;;;;;;7.33;4.40;;;;;;;22.52;48.96;99912.81;5068973;28;20097;-81
2023/09/10 02:53:35;;;;;;;7.50;4.67;;;;;;;22.54;49.32;99924.34;5069040;28;20028;-80
2023/09/10 02:56:02;;;;;;;7.30;4.50;;;;;;;22.54;49.15;99935.06;5062151;28;20052;-81
2023/09/10 02:58:28;;;;;;;7.90;4.35;;;;;;;22.51;49.20;99930.75;5049284;28;20534;-80
2023/09/10 03:00:53;;;;;;;7.57;4.32;;;;;;;22.49;49.62;99945.22;5049141;28;20115;-80
2023/09/10 03:03:19;;;;;;;8.23;4.43;;;;;;;22.48;49.70;99962.28;5049390;28;20377;-81
2023/09/10 03:05:46;;;;;;;8.20;4.55;;;;;;;22.48;49.78;99956.91;5049043;28;20017;-80
2023/09/10 03:08:11;;;;;;;7.07;4.30;;;;;;;22.46;50.02;99948.06;5050873;28;20558;-80
2023/09/10 03:10:36;;;;;;;8.17;4.77;;;;;;;22.45;50.01;99962.41;5052527;28;20025;-80
2023/09/10 03:13:02;;;;;;;7.20;4.33;;;;;;;22.47;50.07;99957.84;5052756;28;20048;-80
2023/09/10 03:15:27;;;;;;;10.07;4.60;;;;;;;22.41;50.66;99942.94;5052749;28;20376;-81
2023/09/10 03:17:53;;;;;;;7.67;4.43;;;;;;;22.39;50.24;99946.69;5052873;28;20055;-81
2023/09/10 03:20:18;;;;;;;7.73;4.40;;;;;;;22.40;50.57;99943.06;5052652;28;20068;-81
2023/09/10 03:22:43;;;;;;;7.03;4.60;;;;;;;22.40;51.08;99943.91;5052676;28;20278;-80
2023/09/10 03:25:10;;;;;;;10.60;4.83;;;;;;;22.39;51.05;99935.97;5052483;28;20028;-81
2023/09/10 03:27:35;;;;;;;8.63;4.70;;;;;;;22.37;51.03;99939.59;5052430;28;20496;-81
2023/09/10 03:30:01;;;;;;;13.82;5.10;;;;;;;22.34;51.35;99939.78;5052407;28;20142;-82
2023/09/10 03:32:26;;;;;;;8.03;4.80;;;;;;;22.34;51.57;99942.47;5052342;28;20036;-81
2023/09/10 03:34:52;;;;;;;9.97;4.80;;;;;;;22.27;52.30;99943.75;5052601;28;20480;-81
2023/09/10 03:37:17;;;;;;;7.70;4.65;;;;;;;22.29;51.95;99947.22;5052219;28;20079;-81
2023/09/10 03:39:42;;;;;;;8.77;4.97;;;;;;;22.31;51.65;99948.00;5052139;28;20219;-81
2023/09/10 03:42:08;;;;;;;8.10;4.80;;;;;;;22.33;51.98;99948.78;5046068;28;20468;-81
2023/09/10 03:44:33;;;;;;;7.57;4.40;;;;;;;22.35;51.92;99952.25;5072475;28;20056;-81
2023/09/10 03:46:59;;;;;;;7.80;4.87;;;;;;;22.35;51.95;99952.25;5071996;28;20492;-79
2023/09/10 03:49:25;;;;;;;8.02;4.97;;;;;;;22.32;52.30;99957.78;5071734;28;20032;-79
2023/09/10 03:51:51;;;;;;;10.63;5.00;;;;;;;22.26;52.45;99963.50;5071751;28;20029;-81
2023/09/10 03:54:17;;;;;;;8.77;5.10;;;;;;;22.23;52.91;99967.22;5053857;28;20031;-80
2023/09/10 03:56:43;;;;;;;8.80;4.73;;;;;;;22.18;52.74;99971.13;5058978;28;20041;-81
2023/09/10 03:59:08;;;;;;;8.82;4.93;;;;;;;22.16;53.12;99986.44;5051982;28;20170;-80
2023/09/10 04:01:34;;;;;;;7.55;5.20;;;;;;;22.10;53.40;99976.91;5051886;28;20024;-81
2023/09/10 04:04:01;;;;;;;7.47;5.17;;;;;;;22.05;53.68;99984.38;5052053;28;20021;-81
2023/09/10 04:06:26;;;;;;;9.38;5.90;;;;;;;21.97;54.39;99984.78;5051745;28;20047;-80
2023/09/10 04:08:51;;;;;;;8.23;5.70;;;;;;;21.89;54.74;99987.91;5051842;28;20544;-81
2023/09/10 04:11:17;;;;;;;8.32;5.20;;;;;;;21.84;54.66;99989.13;5051569;28;20024;-80
2023/09/10 04:13:42;;;;;;;12.93;5.43;;;;;;;21.82;54.90;99996.38;5051562;28;20091;-80
2023/09/10 04:16:07;;;;;;;9.77;5.60;;;;;;;21.77;55.24;100004.69;5051531;28;20097;-81
2023/09/10 04:18:34;;;;;;;7.90;4.83;;;;;;;21.73;55.48;99993.25;5033233;28;20505;-80
2023/09/10 04:21:04;;;;;;;8.32;5.40;;;;;;;21.71;56.08;100008.56;5051702;28;20274;-80
2023/09/10 04:23:29;;;;;;;9.30;5.82;;;;;;;21.71;55.56;99994.31;5053160;28;20021;-80
2023/09/10 04:25:54;;;;;;;8.80;5.10;;;;;;;21.69;55.50;99993.50;5054432;28;20024;-81
2023/09/10 04:28:20;;;;;;;8.57;5.63;;;;;;;21.71;55.43;100000.50;5051255;28;20060;-80
2023/09/10 04:30:45;;;;;;;9.20;5.27;;;;;;;21.74;55.16;100004.84;5051699;28;20064;-80
2023/09/10 04:33:11;;;;;;;9.40;5.60;;;;;;;21.74;55.61;100013.75;5051103;28;20044;-81
2023/09/10 04:35:39;;;;;;;8.90;5.43;;;;;;;21.73;55.41;100025.41;5051010;28;20287;-81
2023/09/10 04:38:04;;;;;;;8.25;5.25;;;;;;;21.65;55.72;100033.88;5051791;28;20016;-79
2023/09/10 04:40:31;;;;;;;9.20;6.00;;;;;;;21.54;56.64;100046.97;5051627;28;20040;-79
2023/09/10 04:42:56;;;;;;;8.90;5.43;;;;;;;21.46;56.32;100059.88;5069767;28;20017;-80
2023/09/10 04:45:21;;;;;;;9.33;5.20;;;;;;;21.42;56.46;100059.19;5071108;28;20181;-80
2023/09/10 04:47:47;;;;;;;9.90;6.17;;;;;;;21.42;56.64;100061.00;5070926;28;20397;-80
2023/09/10 04:50:12;;;;;;;8.38;5.57;;;;;;;21.39;57.11;100064.72;5070906;28;20064;-81
2023/09/10 04:52:38;;;;;;;8.97;5.33;;;;;;;21.39;56.87;100064.72;5070764;28;20024;-80
2023/09/10 04:55:03;;;;;;;8.00;5.37;;;;;;;21.40;57.05;100066.44;5070981;28;20476;-80
2023/09/10 04:57:29;;;;;;;8.52;5.13;;;;;;;21.41;56.77;100062.81;5052085;28;20017;-80
2023/09/10 04:59:54;;;;;;;8.53;5.60;;;;;;;21.44;57.28;100072.50;5050972;28;20549;-80
2023/09/10 05:02:19;;;;;;;8.47;5.63;;;;;;;21.41;57.00;100067.28;5033033;28;20029;-81
2023/09/10 05:04:45;;;;;;;8.30;5.33;;;;;;;21.39;57.38;100072.75;5050835;28;20109;-81
2023/09/10 05:07:10;;;;;;;10.90;5.73;;;;;;;21.36;57.72;100076.44;5050679;28;20028;-80
2023/09/10 05:09:35;;;;;;;7.97;5.57;;;;;;;21.34;57.45;100082.81;5050576;28;20322;-80
2023/09/10 05:12:01;;;;;;;10.00;5.87;;;;;;;21.32;57.71;100079.34;5050487;28;20036;-81
2023/09/10 05:14:29;;;;;;;10.17;5.70;;;;;;;21.33;57.86;100075.72;5050639;28;20100;-80
2023/09/10 05:16:54;;;;;;;11.10;5.97;;;;;;;21.33;57.94;100083.75;5050284;28;20025;-80
2023/09/10 05:19:23;;;;;;;9.63;5.80;;;;;;;21.30;57.94;100075.88;5032542;28;20044;-79
2023/09/10 05:21:49;;;;;;;10.27;5.38;;;;;;;21.29;58.44;100087.53;5050351;28;20020;-79
2023/09/10 05:24:14;;;;;;;8.77;5.43;;;;;;;21.30;58.04;100075.88;5050527;28;20039;-81
2023/09/10 05:26:40;;;;;;;10.47;5.47;;;;;;;21.31;58.51;100075.81;5051007;28;20432;-81
2023/09/10 05:29:05;;;;;;;12.87;6.63;;;;;;;21.28;58.46;100072.44;5050129;28;20223;-80
2023/09/10 05:31:32;;;;;;;14.07;6.80;;;;;;;21.29;58.74;100060.75;5049157;28;20052;-81
2023/09/10 05:33:57;;;;;;;9.88;6.13;;;;;;;21.28;59.14;100069.75;5049948;28;20025;-81
2023/09/10 05:36:22;;;;;;;10.70;6.03;;;;;;;21.19;59.75;100066.63;5049975;28;20100;-81
2023/09/10 05:38:48;;;;;;;11.47;6.67;;;;;;;21.17;59.77;100056.91;5050277;28;20020;-81
2023/09/10 05:41:13;;;;;;;14.23;6.47;;;;;;;21.17;59.42;100056.91;5054778;28;20070;-80
2023/09/10 05:43:38;;;;;;;10.68;6.88;;;;;;;21.15;59.81;100054.34;5070091;28;20039;-81
2023/09/10 05:46:04;;;;;;;11.40;6.37;;;;;;;21.14;59.88;100049.94;5070281;28;20468;-80
2023/09/10 05:48:29;;;;;;;10.20;6.47;;;;;;;21.12;59.83;100046.47;5069766;28;20045;-81
2023/09/10 05:50:56;;;;;;;11.10;6.43;;;;;;;21.13;59.63;100061.59;5070212;28;20020;-81
2023/09/10 05:53:22;;;;;;;9.68;6.90;;;;;;;21.12;60.17;100062.53;5069964;28;20028;-81
2023/09/10 05:55:47;;;;;;;9.13;6.20;;;;;;;21.08;60.40;100060.94;5064876;28;20034;-81
2023/09/10 05:58:14;;;;;;;9.57;6.47;;;;;;;21.11;60.05;100060.81;5050138;28;20064;-81
2023/09/10 06:00:39;;;;;;;9.70;6.43;;;;;;;21.11;59.96;100060.81;5049929;28;20017;-81
2023/09/10 06:03:07;;;;;;;11.07;6.30;;;;;;;21.12;60.07;100062.53;5049734;28;20109;-81
2023/09/10 06:05:32;;;;;;;12.07;6.97;;;;;;;21.19;60.34;100063.06;5049800;28;20028;-81
2023/09/10 06:07:58;;;;;;;9.98;6.53;;;;;;;21.38;59.74;100052.28;5050156;28;20021;-80
2023/09/10 06:10:23;;;;;;;10.83;6.30;;;;;;;21.60;59.04;100062.69;5049720;28;20021;-80
2023/09/10 06:12:49;;;;;;;11.47;6.30;;;;;;;21.83;58.86;100067.81;5049458;28;20017;-80
2023/09/10 06:15:14;;;;;;;11.17;7.40;;;;;;;21.89;59.51;100059.44;5049561;28;20029;-80
2023/09/10 06:17:39;;;;;;;10.15;6.60;;;;;;;22.00;58.61;100058.84;5049685;28;20151;-81
2023/09/10 06:20:05;;;;;;;11.33;7.63;;;;;;;22.04;59.43;100057.72;5049997;28;20021;-81
2023/09/10 06:22:31;;;;;;;10.23;6.55;;;;;;;22.07;59.16;100066.47;5055929;28;20421;-81
2023/09/10 06:24:56;;;;;;;8.90;6.37;;;;;;;22.23;58.72;100060.22;5070131;28;20021;-81
2023/09/10 06:27:22;;;;;;;10.80;7.00;;;;;;;22.41;58.06;100058.31;5051473;28;20018;-82
2023/09/10 06:29:47;;;;;;;9.80;7.13;;;;;;;22.55;57.86;100052.22;5049643;28;20029;-82
2023/09/10 06:32:13;;;;;;;10.25;6.07;;;;;;;22.68;57.14;100051.47;5049836;28;20032;-81
2023/09/10 06:34:38;;;;;;;10.43;6.70;;;;;;;22.80;57.06;100053.47;5049379;28;20029;-81
2023/09/10 06:37:05;;;;;;;12.17;7.17;;;;;;;22.75;57.68;100050.16;5049577;28;20025;-82
2023/09/10 06:39:38;;;;;;;10.98;6.65;;;;;;;22.71;57.82;100043.25;5049634;28;20481;-82
2023/09/10 06:42:05;;;;;;;9.15;6.40;;;;;;;22.74;57.46;100049.31;5061281;28;20025;-82
2023/09/10 06:44:30;;;;;;;11.20;7.22;;;;;;;22.73;57.85;100062.81;5073445;28;20104;-82
2023/09/10 06:46:55;;;;;;;10.13;6.40;;;;;;;22.81;57.71;100057.88;5073470;28;20058;-82
2023/09/10 06:49:21;;;;;;;11.13;7.37;;;;;;;22.89;57.65;100060.09;5073592;28;20029;-82
2023/09/10 06:51:46;;;;;;;11.03;6.47;;;;;;;22.99;57.50;100061.28;5055186;28;20032;-81
2023/09/10 06:54:11;;;;;;;9.30;6.53;;;;;;;23.17;57.14;100063.84;5073314;28;20051;-83
2023/09/10 06:56:37;;;;;;;11.67;6.77;;;;;;;23.23;56.87;100050.03;5061168;28;20295;-81
2023/09/10 06:59:02;;;;;;;12.30;6.93;;;;;;;23.19;57.12;100062.75;5053360;28;20029;-81
2023/09/10 07:01:27;;;;;;;10.23;6.40;;;;;;;23.30;56.99;100061.31;5053261;28;20444;-81
2023/09/10 07:03:53;;;;;;;11.37;6.63;;;;;;;23.37;56.67;100057.28;5053455;28;20033;-81
2023/09/10 07:06:18;;;;;;;9.50;6.40;;;;;;;23.42;56.81;100052.47;5053509;28;20025;-81
2023/09/10 07:08:44;;;;;;;10.07;6.82;;;;;;;23.51;56.69;100061.81;5052954;28;20055;-82
2023/09/10 07:11:09;;;;;;;10.40;6.87;;;;;;;23.60;56.74;100055.00;5053104;28;20043;-83
2023/09/10 07:13:36;;;;;;;8.60;6.23;;;;;;;23.66;56.60;100057.28;5052946;28;20060;-82
2023/09/10 07:16:02;;;;;;;9.82;6.28;;;;;;;23.79;56.30;100042.13;5052858;28;20036;-82
2023/09/10 07:18:32;;;;;;;8.83;5.80;;;;;;;23.90;55.76;100040.56;5053312;28;20381;-83
2023/09/10 07:21:01;;;;;;;10.23;6.25;;;;;;;24.06;55.84;100038.66;5035076;28;20489;-82
2023/09/10 07:23:27;;;;;;;8.60;5.88;;;;;;;24.19;55.27;100043.25;5065731;28;20028;-82
2023/09/10 07:25:53;;;;;;;11.15;6.13;;;;;;;24.27;55.04;100050.81;5066593;28;20108;-82
2023/09/10 07:28:18;;;;;;;9.73;6.43;;;;;;;24.35;54.18;100048.47;5052574;28;20604;-81
2023/09/10 07:30:43;;;;;;;9.57;6.03;;;;;;;24.43;54.21;100051.56;5052367;28;20049;-82
2023/09/10 07:33:09;;;;;;;9.82;5.80;;;;;;;24.48;53.76;100056.66;5052204;28;20027;-81
2023/09/10 07:35:34;;;;;;;11.87;5.80;;;;;;;24.58;53.46;100060.44;5052324;28;20554;-82
2023/09/10 07:37:59;;;;;;;8.77;6.03;;;;;;;24.68;53.02;100055.31;5052711;28;20508;-82
2023/09/10 07:40:25;;;;;;;9.67;6.33;;;;;;;24.72;53.14;100064.91;5052723;28;20063;-83
2023/09/10 07:42:51;;;;;;;9.30;5.90;;;;;;;24.74;53.10;100054.03;5052180;28;20028;-83
2023/09/10 07:45:16;;;;;;;9.40;5.57;;;;;;;24.87;52.61;100060.34;5072358;28;20024;-82
2023/09/10 07:47:42;;;;;;;10.27;5.90;;;;;;;24.96;52.34;100063.38;5071934;28;20020;-82
2023/09/10 07:50:08;;;;;;;7.93;5.80;;;;;;;25.15;52.09;100063.84;5045434;28;20734;-83
2023/09/10 07:52:34;;;;;;;9.27;5.80;;;;;;;25.32;51.94;100059.13;5052569;28;20021;-82
2023/09/10 07:54:59;;;;;;;11.33;6.03;;;;;;;25.37;51.51;100067.75;5051710;28;20029;-82
2023/09/10 07:57:25;;;;;;;12.50;5.53;;;;;;;25.49;51.74;100064.25;5070451;28;20025;-83
2023/09/10 07:59:51;;;;;;;8.03;5.40;;;;;;;25.51;51.14;100064.13;5072221;28;20020;-83
2023/09/10 08:02:16;;;;;;;9.30;5.78;;;;;;;25.67;51.15;100058.50;5072571;28;20044;-82
2023/09/10 08:04:43;;;;;;;8.20;5.40;;;;;;;25.83;51.07;100058.28;5071976;28;20443;-83
2023/09/10 08:07:09;;;;;;;10.13;5.47;;;;;;;26.03;50.80;100053.28;5071169;28;20025;-82
2023/09/10 08:09:34;;;;;;;8.85;5.25;;;;;;;26.23;50.17;100049.16;5071800;28;20423;-82
2023/09/10 08:12:00;;;;;;;7.87;5.40;;;;;;;26.49;49.87;100051.78;5068275;28;20021;-83
2023/09/10 08:14:25;;;;;;;9.07;5.50;;;;;;;26.71;49.22;100048.31;5060409;28;20032;-81
2023/09/10 08:16:57;;;;;;;9.67;5.17;;;;;;;26.99;48.59;100046.22;5057575;28;20567;-82
2023/09/10 08:19:22;;;;;;;8.75;5.47;;;;;;;27.12;47.72;100035.31;5062946;28;20020;-82
2023/09/10 08:21:48;;;;;;;9.17;5.30;;;;;;;27.28;47.35;100044.94;5074023;28;20089;-81
2023/09/10 08:24:14;;;;;;;8.32;4.70;;;;;;;27.39;47.29;100042.28;5053866;28;20564;-84
2023/09/10 08:26:39;;;;;;;8.07;5.20;;;;;;;27.56;46.60;100050.91;5058223;28;20025;-84
2023/09/10 08:29:04;;;;;;;7.20;5.00;;;;;;;27.72;46.18;100051.44;5051631;28;20025;-83
2023/09/10 08:31:30;;;;;;;9.30;5.10;;;;;;;27.92;45.86;100043.56;5052078;28;20052;-89
2023/09/10 08:33:55;;;;;;;8.37;4.93;;;;;;;27.99;45.95;100033.09;5054483;28;20025;-89
2023/09/10 08:36:21;;;;;;;7.40;4.70;;;;;;;28.11;45.85;100044.78;5055133;28;20085;-87
2023/09/10 08:38:46;;;;;;;9.77;4.90;;;;;;;28.14;44.75;100041.81;5037333;28;20119;-88
2023/09/10 08:41:23;;;;;;;7.50;4.70;;;;;;;28.17;44.97;100053.25;5045766;28;20066;-88
2023/09/10 08:43:56;;;;;;;8.23;4.83;;;;;;;28.21;44.79;100038.50;5076046;28;20032;-88
2023/09/10 08:46:32;;;;;;;6.40;4.32;;;;;;;28.27;44.52;100037.13;5078513;28;20035;-88
2023/09/10 08:48:59;;;;;;;8.10;4.43;;;;;;;28.38;44.33;100032.69;5074942;28;20033;-88
2023/09/10 08:51:25;;;;;;;8.18;4.93;;;;;;;28.46;44.22;100041.00;5075692;28;20075;-88
2023/09/10 08:54:01;;;;;;;7.80;4.70;;;;;;;28.40;43.96;100036.13;5052662;28;20049;-88
2023/09/10 08:56:27;;;;;;;7.88;4.72;;;;;;;28.47;43.98;100040.03;5044507;28;20142;-88
2023/09/10 08:58:54;;;;;;;8.48;4.65;;;;;;;28.61;43.84;100039.75;5033908;28;20116;-87
2023/09/10 09:01:21;;;;;;;6.65;4.72;;;;;;;28.76;43.76;100028.56;5033462;28;20032;-89
2023/09/10 09:03:47;;;;;;;10.90;4.80;;;;;;;28.94;43.27;100032.47;5053460;28;20028;-89
2023/09/10 09:06:13;;;;;;;9.30;4.80;;;;;;;29.10;43.00;100036.59;5059122;28;20499;-86
2023/09/10 09:08:40;;;;;;;8.30;4.82;;;;;;;29.18;42.67;100031.34;5061444;28;20040;-86
2023/09/10 09:11:08;;;;;;;8.10;5.13;;;;;;;29.25;42.35;100028.09;5061979;28;20116;-86
2023/09/10 09:13:37;;;;;;;7.85;4.85;;;;;;;29.32;41.95;100019.28;5061533;28;20029;-87
2023/09/10 09:16:06;;;;;;;8.20;4.47;;;;;;;29.32;41.96;100015.75;5061897;28;20048;-84
2023/09/10 09:18:35;;;;;;;8.70;5.03;;;;;;;29.41;41.50;100014.94;5056062;28;20044;-86
2023/09/10 09:21:22;;;;;;;7.13;4.40;;;;;;;29.40;41.92;100007.78;5051312;28;20075;-84
2023/09/10 09:23:56;;;;;;;8.02;4.70;;;;;;;29.59;41.84;100006.19;5066288;28;20048;-85
2023/09/10 09:26:22;;;;;;;8.30;4.60;;;;;;;29.73;41.21;100000.38;5064161;28;20027;-83
2023/09/10 09:28:48;;;;;;;7.13;4.50;;;;;;;29.85;41.03;99997.56;5070738;28;20028;-82
2023/09/10 09:31:13;;;;;;;9.73;4.75;;;;;;;29.88;40.69;99994.56;5070107;28;20048;-83
2023/09/10 09:33:39;;;;;;;8.23;4.67;;;;;;;29.96;40.82;99981.16;5070523;28;20040;-84
2023/09/10 09:36:09;;;;;;;7.75;4.40;;;;;;;30.07;39.82;99981.09;5052308;28;20039;-84
2023/09/10 09:38:34;;;;;;;8.10;4.60;;;;;;;30.00;40.65;99979.88;5070494;28;20024;-84
2023/09/10 09:41:06;;;;;;;9.13;4.30;;;;;;;30.12;40.50;99977.09;5067219;28;20747;-83
2023/09/10 09:43:34;;;;;;;6.80;4.43;;;;;;;30.29;39.91;99976.41;5050070;28;20029;-86
2023/09/10 09:46:00;;;;;;;12.27;4.90;;;;;;;30.45;39.15;99977.66;5031920;28;20029;-86
2023/09/10 09:48:25;;;;;;;7.10;4.30;;;;;;;30.62;39.53;99974.28;5050614;28;20108;-86
2023/09/10 09:50:51;;;;;;;7.37;4.47;;;;;;;30.81;39.05;99969.81;5051287;28;20610;-86
2023/09/10 09:53:16;;;;;;;8.87;4.60;;;;;;;31.00;38.63;99968.09;5050949;28;20063;-86
2023/09/10 09:55:44;;;;;;;8.27;4.53;;;;;;;31.12;38.79;99960.59;5038516;28;20073;-86
2023/09/10 09:58:11;;;;;;;7.03;4.25;;;;;;;31.19;38.55;99961.72;5045805;28;20021;-87
2023/09/10 10:00:37;;;;;;;7.47;4.28;;;;;;;31.36;38.15;99960.97;5059967;28;20106;-88
2023/09/10 10:03:04;;;;;;;8.25;4.45;;;;;;;31.54;37.93;99954.72;5059508;28;20112;-88
2023/09/10 10:05:32;;;;;;;7.65;4.60;;;;;;;31.67;37.64;99954.38;5044777;28;20032;-89
2023/09/10 10:07:58;;;;;;;7.57;4.43;;;;;;;31.75;37.32;99959.94;5061291;28;20032;-91
2023/09/10 10:10:24;;;;;;;7.75;4.35;;;;;;;31.84;37.21;99950.03;5051834;28;20025;-88
2023/09/10 10:12:52;;;;;;;8.43;4.30;;;;;;;31.90;37.09;99954.00;5053649;28;20031;-89
2023/09/10 10:15:19;;;;;;;7.00;4.13;;;;;;;32.00;36.75;99952.06;5035466;28;20351;-89
2023/09/10 10:17:45;;;;;;;10.07;4.53;;;;;;;32.10;36.61;99948.41;5047545;28;20107;-87
2023/09/10 10:20:11;;;;;;;9.65;4.50;;;;;;;32.22;36.60;99949.91;5073653;28;20068;-86
2023/09/10 10:22:36;;;;;;;8.35;4.53;;;;;;;32.34;36.15;99943.22;5060786;28;20135;-89
2023/09/10 10:25:04;;;;;;;9.70;4.47;;;;;;;32.45;36.23;99944.03;5051626;28;20068;-81
2023/09/10 10:27:32;;;;;;;9.25;4.72;;;;;;;32.49;35.47;99945.41;5049000;28;20025;-81
2023/09/10 10:29:58;;;;;;;6.47;4.20;;;;;;;32.51;35.54;99946.13;5051010;28;20129;-82
2023/09/10 10:32:32;;;;;;;6.60;4.20;;;;;;;32.50;35.56;99950.69;5049229;28;20080;-82
2023/09/10 10:35:02;;;;;;;10.75;5.28;;;;;;;32.61;35.29;99944.13;5049388;28;20523;-82
2023/09/10 10:38:05;;;;;;;7.65;4.45;;;;;;;32.59;35.24;99937.16;5048930;28;20074;-82
2023/09/10 10:40:35;;;;;;;10.60;4.60;;;;;;;32.79;34.38;99935.91;4967196;28;20102;-83
2023/09/10 10:43:25;;;;;;;11.00;4.80;;;;;;;32.88;34.86;99934.13;5038248;28;20033;-84
2023/09/10 10:45:55;;;;;;;6.75;4.45;;;;;;;33.00;34.70;99928.44;5061147;28;20405;-82
2023/09/10 10:48:30;;;;;;;9.57;4.38;;;;;;;32.96;34.30;99919.72;5059502;28;20106;-86
2023/09/10 10:50:57;;;;;;;9.82;4.90;;;;;;;33.00;34.02;99918.34;5059483;28;20032;-85
2023/09/10 10:53:26;;;;;;;9.10;4.40;;;;;;;32.96;34.43;99913.41;5065485;28;20064;-84
2023/09/10 10:55:55;;;;;;;8.32;4.65;;;;;;;32.98;34.54;99908.66;5063639;28;20124;-83
2023/09/10 10:58:23;;;;;;;8.32;4.60;;;;;;;33.06;34.21;99906.81;5052005;28;20025;-82
2023/09/10 11:00:52;;;;;;;8.25;4.10;;;;;;;33.11;34.16;99895.41;5052555;28;20029;-83
2023/09/10 11:03:19;;;;;;;8.88;4.32;;;;;;;33.19;33.92;99908.25;5050802;28;20545;-90
2023/09/10 11:05:54;;;;;;;8.17;4.10;;;;;;;33.19;33.69;99900.06;5049372;28;20029;-81
2023/09/10 11:08:48;;;;;;;9.90;4.65;;;;;;;33.22;33.63;99899.72;5052057;28;20508;-82
2023/09/10 11:11:32;;;;;;;9.18;4.80;;;;;;;33.29;33.54;99894.47;5051981;28;20032;-82
2023/09/10 11:14:09;;;;;;;6.20;4.40;;;;;;;33.42;32.99;99894.00;5050221;28;20025;-85
2023/09/10 11:16:35;;;;;;;8.55;4.32;;;;;;;33.47;32.98;99895.28;5031100;28;20634;-82
2023/09/10 11:19:03;;;;;;;6.37;4.10;;;;;;;33.48;32.56;99890.66;5055575;28;20013;-82
2023/09/10 11:21:56;;;;;;;12.27;4.22;;;;;;;33.42;32.72;99881.28;5057433;28;20099;-80
2023/09/10 11:24:21;;;;;;;10.07;4.60;;;;;;;33.58;32.68;99879.59;5055172;28;20493;-82
2023/09/10 11:26:47;;;;;;;11.53;4.80;;;;;;;33.69;32.22;99876.56;5065304;28;20054;-81